Hauptseite
METAR-TAF:

METAR-TAF

Flughäfen :

Flughafen Frankfurt-Hahn

Hahn, Deutschland

Breite: 49-57N, Länge: 007-16E, Höhe: 491 m

Beobachtung

Neuester Wetterbericht von vor 26 Minuten, um 01:50 UTC
Wind 2 kt aus Ost
Temperatur 4°C
Luftfeuchtigkeit 65%
Luftdruck 1033 hPa
Sichtweite 10 km oder mehr
keine Wolken unter 1500 m und keine Kumulonimbus oder Gewitterwolken

METAR: EDFH 210150Z 09002KT CAVOK 04/M02 Q1033

Zeit: 03:16 (02:16 UTC)

Prognose

Neuester Wetterbericht von vor 3 Stunden und 16 Minuten, um 23:00 UTC
Gültige Prognose vom 21 um 00 UTC bis 21 um 24 UTC
Wind 5 kt aus Südost
Sichtweite 10 km oder mehr
keine Wolken unter 1500 m und keine Kumulonimbus oder Gewitterwolken
Übergehend zu
vom 21 um 09 UTC bis 21 um 12 UTC
Wind 7 kt aus Ost

TAF: EDFH 202300Z 2100/2124 14005KT CAVOK BECMG 2109/2112 08007KT

Wetterbeobachtungen und Prognosen von mehr als 4000 Flughäfen (METAR und TAF Bericht).

Die verfügbaren Stationen werden durch gelbe und rote Markierungen auf der Karte dargestellt.

Führen Sie die Maus auf sie, um den Namen der Station zu sehen.

Darauf klicken, um die Beobachtung von Wetterbeobachtungen und Prognosen zu sehen.

Um die Karte zu ändern : klicken Sie auf den grünen Tasten mit einem schwarzen Kreuz Zum Vergrößern, auf den grünen Button mit einem Gedankenstrich zu verkleinern, oder auf die grünen Pfeile für benachbarte Karten.


METAR-TAF: